createdAt,value
2017-10-18T00:00:37.621Z,13.37
2017-10-18T00:01:37.626Z,13.35
2017-10-18T00:02:37.284Z,13.3
2017-10-18T00:03:37.283Z,13.3
2017-10-18T00:04:37.603Z,13.3
2017-10-18T00:05:37.277Z,13.23
2017-10-18T00:06:37.274Z,13.31
2017-10-18T00:07:37.952Z,13.12
2017-10-18T00:08:37.530Z,13.19
2017-10-18T00:09:37.265Z,13.18
2017-10-18T00:10:37.273Z,13.22
2017-10-18T00:11:37.275Z,13.13
2017-10-18T00:12:36.944Z,13.15
2017-10-18T00:13:37.587Z,13.18
2017-10-18T00:14:37.587Z,13.18
2017-10-18T00:15:37.588Z,13.16
2017-10-18T00:16:37.575Z,13.19
2017-10-18T00:17:37.569Z,13.16
2017-10-18T00:18:37.272Z,13.16
2017-10-18T00:19:37.573Z,13.2
2017-10-18T00:20:37.562Z,13.13
2017-10-18T00:21:37.562Z,13.2
2017-10-18T00:22:37.561Z,13.22
2017-10-18T00:23:37.563Z,13.23
2017-10-18T00:24:37.244Z,13.15
2017-10-18T00:25:37.555Z,13.15
2017-10-18T00:26:37.226Z,13.25
2017-10-18T00:27:37.541Z,13.15
2017-10-18T00:28:37.544Z,13.3
2017-10-18T00:29:37.805Z,13.27
2017-10-18T00:30:36.901Z,13.25
2017-10-18T00:31:36.896Z,13.31
2017-10-18T00:32:37.219Z,13.23
2017-10-18T00:33:37.541Z,13.18
2017-10-18T00:34:37.247Z,13.19
2017-10-18T00:35:37.208Z,13.22
2017-10-18T00:36:37.236Z,13.22
2017-10-18T00:37:37.520Z,13.11
2017-10-18T00:38:37.520Z,13.13
2017-10-18T00:39:37.204Z,13.13
2017-10-18T00:40:37.195Z,13.11
2017-10-18T00:41:37.513Z,13.12
2017-10-18T00:42:36.866Z,13.22
2017-10-18T00:43:36.863Z,13.22
2017-10-18T00:44:37.183Z,13.23
2017-10-18T00:45:37.512Z,13.2
2017-10-18T00:46:37.504Z,13.12
2017-10-18T00:47:37.515Z,13.15
2017-10-18T00:48:37.199Z,13.19
2017-10-18T00:49:37.198Z,13.12
2017-10-18T00:50:37.494Z,13.11
2017-10-18T00:51:37.514Z,13.13
2017-10-18T00:52:37.188Z,13.13
2017-10-18T00:53:37.492Z,13.16
2017-10-18T00:54:37.175Z,12.98
2017-10-18T00:55:37.473Z,13.11
2017-10-18T00:56:37.153Z,13.13
2017-10-18T00:57:37.152Z,13.15
2017-10-18T00:58:37.470Z,13.15
2017-10-18T00:59:41.780Z,13.23
2017-10-18T01:00:37.141Z,13.19
2017-10-18T01:01:36.821Z,13.2
2017-10-18T15:44:22.709Z,18.95
2017-10-18T15:45:04.032Z,18.95
2017-10-18T15:46:04.037Z,18.8
2017-10-18T15:47:03.386Z,18.71
2017-10-18T15:48:04.043Z,18.7
2017-10-18T15:49:04.037Z,18.59
2017-10-18T15:50:03.383Z,18.49
2017-10-18T15:51:04.040Z,18.45
2017-10-18T15:52:04.045Z,18.38
2017-10-18T15:53:03.717Z,18.33
2017-10-18T15:54:04.033Z,18.29
2017-10-18T15:55:04.033Z,18.23
2017-10-18T15:56:03.893Z,18.1
2017-10-18T15:57:03.720Z,18.05
2017-10-18T15:58:04.193Z,17.95
2017-10-18T15:59:03.404Z,17.82
2017-10-18T16:00:03.550Z,17.71
2017-10-18T16:01:04.059Z,17.65
2017-10-18T16:02:04.039Z,17.54
2017-10-18T16:03:04.129Z,17.6
2017-10-18T16:04:03.792Z,17.49
2017-10-18T16:05:03.730Z,17.42
2017-10-18T16:06:04.058Z,17.38
2017-10-18T16:07:03.415Z,17.33
2017-10-18T16:08:03.722Z,17.34
2017-10-18T16:09:03.737Z,17.33
2017-10-18T16:10:04.064Z,17.22
2017-10-18T16:11:04.061Z,17.26
2017-10-18T16:12:03.782Z,17.19
2017-10-18T16:13:03.422Z,17.15
2017-10-18T16:14:04.066Z,17.09
2017-10-18T16:15:04.065Z,16.99
2017-10-18T16:16:03.936Z,17.06
2017-10-18T16:17:03.746Z,16.99
2017-10-18T16:18:04.100Z,16.94
2017-10-18T16:19:04.075Z,16.93
2017-10-18T16:20:03.748Z,16.99
2017-10-18T16:21:04.116Z,16.87
2017-10-18T16:22:04.075Z,16.81
2017-10-18T16:23:03.739Z,16.83
2017-10-18T16:24:03.422Z,16.83
2017-10-18T16:25:03.737Z,16.81
2017-10-18T16:26:03.739Z,16.72
2017-10-18T16:27:03.760Z,16.83
2017-10-18T16:28:04.082Z,16.68
2017-10-18T16:29:03.424Z,16.68
2017-10-18T16:30:03.743Z,16.64
2017-10-18T16:31:03.743Z,16.58
2017-10-18T16:32:04.091Z,16.57
2017-10-18T16:33:03.765Z,16.54
2017-10-18T16:34:03.427Z,16.47
2017-10-18T16:35:04.083Z,16.49
2017-10-18T16:36:03.766Z,16.43
2017-10-18T16:37:03.429Z,16.47
2017-10-18T16:38:04.096Z,16.39
2017-10-18T16:39:04.088Z,16.33
2017-10-18T16:40:03.745Z,16.32
2017-10-18T16:41:04.099Z,16.33
2017-10-18T16:42:03.742Z,16.28
2017-10-18T16:43:04.086Z,16.28
2017-10-18T16:44:03.434Z,16.1
2017-10-18T16:45:07.427Z,16.12
2017-10-18T16:46:03.761Z,16.15
2017-10-18T16:47:03.769Z,16.13
2017-10-18T16:48:03.433Z,16.13
2017-10-18T16:49:03.769Z,16.09
2017-10-18T16:50:04.095Z,16.12
2017-10-18T16:51:03.766Z,16.13
2017-10-18T16:52:03.775Z,16.1
2017-10-18T16:53:04.066Z,16.13
2017-10-18T16:54:03.767Z,16.08
2017-10-18T16:55:03.742Z,16.08
2017-10-18T16:56:03.421Z,16.09
2017-10-18T16:57:04.108Z,16.09
2017-10-18T16:58:03.748Z,15.95
2017-10-18T16:59:03.422Z,15.94
2017-10-18T17:00:04.069Z,15.84
2017-10-18T17:01:04.095Z,15.82
2017-10-18T17:02:04.063Z,15.79
2017-10-18T17:03:04.070Z,15.79
2017-10-18T17:04:04.094Z,15.76
2017-10-18T17:05:04.098Z,15.73
2017-10-18T17:06:03.747Z,15.79
2017-10-18T17:07:04.094Z,15.61
2017-10-18T17:08:03.753Z,15.59
2017-10-18T17:09:03.750Z,15.59
2017-10-18T17:10:04.082Z,15.62
2017-10-18T17:11:03.779Z,15.62
2017-10-18T17:12:03.748Z,15.54
2017-10-18T17:13:03.751Z,15.58
2017-10-18T17:14:03.780Z,15.51
2017-10-18T17:15:04.076Z,15.52
2017-10-18T17:16:06.774Z,15.46
2017-10-18T17:17:04.077Z,15.43
2017-10-18T17:18:04.108Z,15.39
2017-10-18T17:19:04.082Z,15.36
2017-10-18T17:20:03.755Z,15.25
2017-10-18T17:21:03.741Z,15.33
2017-10-18T17:22:03.758Z,15.28
2017-10-18T17:23:03.758Z,15.18
2017-10-18T17:24:03.426Z,15.1
2017-10-18T17:25:03.739Z,15.14
2017-10-18T17:26:03.739Z,15.17
2017-10-18T17:27:04.067Z,15.06
2017-10-18T17:28:03.741Z,15.06
2017-10-18T17:29:04.067Z,14.99
2017-10-18T17:30:03.742Z,15
2017-10-18T17:31:03.737Z,14.92
2017-10-18T17:32:04.065Z,14.92
2017-10-18T17:33:03.736Z,14.97
2017-10-18T17:34:04.065Z,14.92
2017-10-18T17:35:03.732Z,14.91
2017-10-18T17:36:04.069Z,14.89
2017-10-18T17:37:04.080Z,14.85
2017-10-18T17:38:03.756Z,14.81
2017-10-18T17:39:04.067Z,14.81
2017-10-18T17:40:04.072Z,14.82
2017-10-18T17:41:04.130Z,14.7
2017-10-18T17:42:04.079Z,14.62
2017-10-18T17:43:04.072Z,14.68
2017-10-18T17:44:03.757Z,14.55
2017-10-18T17:45:03.741Z,14.55
2017-10-18T17:46:07.943Z,14.6
2017-10-18T17:47:04.047Z,14.51
2017-10-18T17:48:03.724Z,14.5
2017-10-18T17:49:03.726Z,14.5
2017-10-18T17:50:04.057Z,14.5
2017-10-18T17:51:03.409Z,14.4
2017-10-18T17:52:04.472Z,14.48
2017-10-18T17:53:04.064Z,14.36
2017-10-18T17:54:03.730Z,14.44
2017-10-18T17:55:03.748Z,14.41
2017-10-18T17:56:03.728Z,14.4
2017-10-18T17:57:03.739Z,14.4
2017-10-18T17:58:04.095Z,14.43
2017-10-18T17:59:04.080Z,14.41
2017-10-18T18:00:04.049Z,14.44
2017-10-18T18:01:04.079Z,14.5
2017-10-18T18:02:03.733Z,14.43
2017-10-18T18:03:03.721Z,14.4
2017-10-18T18:04:03.420Z,14.47
2017-10-18T18:05:03.754Z,14.37
2017-10-18T18:06:03.725Z,14.33
2017-10-18T18:07:04.047Z,14.33
2017-10-18T18:08:03.721Z,14.32
2017-10-18T18:09:03.735Z,14.28
2017-10-18T18:10:03.429Z,14.35
2017-10-18T18:11:03.722Z,14.25
2017-10-18T18:12:03.721Z,14.28
2017-10-18T18:13:03.391Z,14.23
2017-10-18T18:14:03.709Z,14.2
2017-10-18T18:15:03.710Z,14.18
2017-10-18T18:16:03.706Z,14.1
2017-10-18T18:17:03.748Z,14.17
2017-10-18T18:18:03.382Z,14.14
2017-10-18T18:19:03.712Z,14.1
2017-10-18T18:20:04.021Z,14.07
2017-10-18T18:21:03.380Z,14.11
2017-10-18T18:22:03.750Z,14.11
2017-10-18T18:23:03.697Z,14.05
2017-10-18T18:24:03.705Z,14.15
2017-10-18T18:25:04.018Z,14.14
2017-10-18T18:26:04.019Z,14.15
2017-10-18T18:27:04.036Z,14.26
2017-10-18T18:28:03.713Z,14.17
2017-10-18T18:29:03.709Z,14.25
2017-10-18T18:30:04.030Z,14.18
2017-10-18T18:31:03.369Z,14.23
2017-10-18T18:32:03.691Z,14.18
2017-10-18T18:33:03.685Z,14.23
2017-10-18T18:34:04.031Z,14.23
2017-10-18T18:35:03.748Z,14.2
2017-10-18T18:36:03.365Z,14.22
2017-10-18T18:37:03.831Z,14.22
2017-10-18T18:38:03.691Z,14.15
2017-10-18T18:39:03.690Z,14.07
2017-10-18T18:40:04.162Z,14.1
2017-10-18T18:41:04.022Z,14.14
2017-10-18T18:42:03.363Z,14.18
2017-10-18T18:43:03.685Z,14.12
2017-10-18T18:44:03.349Z,14.14
2017-10-18T18:45:03.988Z,14.12
2017-10-18T18:46:03.673Z,14.12
2017-10-18T18:47:07.664Z,14.2
2017-10-18T18:48:03.671Z,14.17
2017-10-18T18:49:03.667Z,14.1
2017-10-18T18:50:03.987Z,14.07
2017-10-18T18:51:03.695Z,14.05
2017-10-18T18:52:03.665Z,14.07
2017-10-18T18:53:03.994Z,13.99
2017-10-18T18:54:03.996Z,13.95
2017-10-18T18:55:03.668Z,13.86
2017-10-18T18:56:03.662Z,13.89
2017-10-18T18:57:03.657Z,13.79
2017-10-18T18:58:03.672Z,13.81
2017-10-18T18:59:03.974Z,13.79
2017-10-18T19:00:03.648Z,13.86
2017-10-18T19:01:03.332Z,13.75
2017-10-18T19:02:03.970Z,13.74
2017-10-18T19:03:03.325Z,13.67
2017-10-18T19:04:03.973Z,13.65
2017-10-18T19:05:03.320Z,13.56
2017-10-18T19:06:03.642Z,13.54
2017-10-18T19:07:03.962Z,13.65
2017-10-18T19:08:03.955Z,13.49
2017-10-18T19:09:03.956Z,13.54
2017-10-18T19:10:03.968Z,13.47
2017-10-18T19:11:03.957Z,13.38
2017-10-18T19:12:03.958Z,13.42
2017-10-18T19:13:03.645Z,13.42
2017-10-18T19:14:03.640Z,13.41
2017-10-18T19:15:03.628Z,13.38
2017-10-18T19:16:03.642Z,13.39
2017-10-18T19:17:03.308Z,13.42
2017-10-18T19:18:03.952Z,13.38
2017-10-18T19:19:03.632Z,13.33
2017-10-18T19:20:03.619Z,13.3
2017-10-18T19:21:03.948Z,13.28
2017-10-18T19:22:03.956Z,13.25
2017-10-18T19:23:03.624Z,13.27
2017-10-18T19:24:03.956Z,13.19
2017-10-18T19:25:03.626Z,13.28
2017-10-18T19:26:03.614Z,13.2
2017-10-18T19:27:03.609Z,13.18
2017-10-18T19:28:03.927Z,13.15
2017-10-18T19:29:03.604Z,13.04
2017-10-18T19:30:03.608Z,13.05
2017-10-18T19:31:03.607Z,13.11
2017-10-18T19:32:03.613Z,13.03
2017-10-18T19:33:03.654Z,13.01
2017-10-18T19:34:03.920Z,13.03
2017-10-18T19:35:03.610Z,13.08
2017-10-18T19:36:03.599Z,12.94
2017-10-18T19:37:03.603Z,12.95
2017-10-18T19:38:03.273Z,12.87
2017-10-18T19:39:03.265Z,12.83
2017-10-18T19:40:03.932Z,12.91
2017-10-18T19:41:03.602Z,12.85
2017-10-18T19:42:03.593Z,12.85
2017-10-18T19:43:03.956Z,12.83
2017-10-18T19:44:03.611Z,12.78
2017-10-18T19:45:03.583Z,12.82
2017-10-18T19:46:04.044Z,12.79
2017-10-18T19:47:03.763Z,12.82
2017-10-18T19:48:03.894Z,12.82
2017-10-18T19:49:03.904Z,12.78
2017-10-18T19:50:03.600Z,12.76
2017-10-18T19:51:03.249Z,12.78
2017-10-18T19:52:03.243Z,12.73
2017-10-18T19:53:03.890Z,12.7
2017-10-18T19:54:03.563Z,12.67
2017-10-18T19:55:03.881Z,12.68
2017-10-18T19:56:03.572Z,12.65
2017-10-18T19:57:03.267Z,12.7
2017-10-18T19:58:03.894Z,12.7
2017-10-18T19:59:03.920Z,12.72
2017-10-18T20:00:03.885Z,12.7
2017-10-18T20:01:03.587Z,12.7
2017-10-18T20:02:03.884Z,12.68
2017-10-18T20:03:03.921Z,12.7
2017-10-18T20:04:03.540Z,12.7
2017-10-18T20:05:03.557Z,12.76
2017-10-18T20:06:03.553Z,12.67
2017-10-18T20:07:03.864Z,12.68
2017-10-18T20:08:03.565Z,12.73
2017-10-18T20:09:03.861Z,12.72
2017-10-18T20:10:03.217Z,12.65
2017-10-18T20:11:03.906Z,12.62
2017-10-18T20:12:03.528Z,12.58
2017-10-18T20:13:03.536Z,12.65
2017-10-18T20:14:03.851Z,12.57
2017-10-18T20:15:04.002Z,12.6
2017-10-18T20:16:03.849Z,12.54
2017-10-18T20:17:03.194Z,12.5
2017-10-18T20:18:03.204Z,12.45
2017-10-18T20:19:03.515Z,12.5
2017-10-18T20:20:03.519Z,12.5
2017-10-18T20:21:03.191Z,12.53
2017-10-18T20:22:03.196Z,12.46
2017-10-18T20:23:03.524Z,12.42
2017-10-18T20:24:03.499Z,12.36
2017-10-18T20:25:03.822Z,12.32
2017-10-18T20:26:03.884Z,12.32
2017-10-18T20:27:03.507Z,12.37
2017-10-18T20:28:03.820Z,12.31
2017-10-18T20:29:03.974Z,12.24
2017-10-18T20:30:04.463Z,12.25
2017-10-18T20:31:03.167Z,12.32
2017-10-18T20:32:03.825Z,12.42
2017-10-18T20:33:03.181Z,12.36
2017-10-18T20:34:03.535Z,12.35
2017-10-18T20:35:03.473Z,12.45
2017-10-18T20:36:03.491Z,12.46
2017-10-18T20:37:03.491Z,12.46
2017-10-18T20:38:03.812Z,12.43
2017-10-18T20:39:03.841Z,12.42
2017-10-18T20:40:03.790Z,12.4
2017-10-18T20:41:03.161Z,12.4
2017-10-18T20:42:03.516Z,12.39
2017-10-18T20:43:03.784Z,12.39
2017-10-18T20:44:03.473Z,12.36
2017-10-18T20:45:03.461Z,12.35
2017-10-18T20:46:03.462Z,12.37
2017-10-18T20:47:03.776Z,12.5
2017-10-18T20:48:03.502Z,12.45
2017-10-18T20:49:05.045Z,12.46
2017-10-18T20:50:03.452Z,12.47
2017-10-18T20:51:03.762Z,12.53
2017-10-18T20:52:03.630Z,12.57
2017-10-18T20:53:03.759Z,12.61
2017-10-18T20:54:03.120Z,12.6
2017-10-18T20:55:03.436Z,12.57
2017-10-18T20:56:03.753Z,12.58
2017-10-18T20:57:03.112Z,12.6
2017-10-18T20:58:03.760Z,12.65
2017-10-18T20:59:03.764Z,12.67
2017-10-18T21:00:03.424Z,12.62
2017-10-18T21:01:03.417Z,12.73
2017-10-18T21:02:03.741Z,12.67
2017-10-18T21:03:03.410Z,12.73
2017-10-18T21:04:03.733Z,12.75
2017-10-18T21:05:03.412Z,12.72
2017-10-18T21:06:03.741Z,12.73
2017-10-18T21:07:03.748Z,12.73
2017-10-18T21:08:03.427Z,12.72
2017-10-18T21:09:03.397Z,12.73
2017-10-18T21:10:03.399Z,12.83
2017-10-18T21:11:03.718Z,12.79
2017-10-18T21:12:03.732Z,12.79
2017-10-18T21:13:03.066Z,12.82
2017-10-18T21:14:03.719Z,12.79
2017-10-18T21:15:03.716Z,12.7
2017-10-18T21:16:03.380Z,12.64
2017-10-18T21:17:03.056Z,12.55
2017-10-18T21:18:03.703Z,12.53
2017-10-18T21:19:04.734Z,12.53
2017-10-18T21:20:03.378Z,12.46
2017-10-18T21:21:03.694Z,12.43
2017-10-18T21:22:03.696Z,12.4
2017-10-18T21:23:03.370Z,12.39
2017-10-18T21:24:03.044Z,12.37
2017-10-18T21:25:03.685Z,12.35
2017-10-18T21:26:03.753Z,12.31
2017-10-18T21:27:03.690Z,12.28
2017-10-18T21:28:03.033Z,12.32
2017-10-18T21:29:03.348Z,12.28
2017-10-18T21:30:03.349Z,12.17
2017-10-18T21:31:03.674Z,12.24
2017-10-18T21:32:03.377Z,12.27
2017-10-18T21:33:03.348Z,12.2
2017-10-18T21:34:03.343Z,12.2
2017-10-18T21:35:03.660Z,12.2
2017-10-18T21:36:03.653Z,12.17
2017-10-18T21:37:03.655Z,12.06
2017-10-18T21:38:03.658Z,12.13
2017-10-18T21:39:03.650Z,12.04
2017-10-18T21:40:03.005Z,12.06
2017-10-18T21:41:03.321Z,12.06
2017-10-18T21:42:03.325Z,12.13
2017-10-18T21:43:03.646Z,12.06
2017-10-18T21:44:03.652Z,12.06
2017-10-18T21:45:02.999Z,12.09
2017-10-18T21:46:02.991Z,11.97
2017-10-18T21:47:03.626Z,11.99
2017-10-18T21:48:03.305Z,12.04
2017-10-18T21:49:03.628Z,12.02
2017-10-18T21:50:03.626Z,12.02
2017-10-18T21:51:03.614Z,12
2017-10-18T21:52:03.619Z,12.12
2017-10-18T21:53:03.616Z,12.06
2017-10-18T21:54:02.989Z,12.1
2017-10-18T21:55:03.285Z,12.07
2017-10-18T21:56:03.613Z,12.07
2017-10-18T21:57:03.611Z,12.12
2017-10-18T21:58:03.627Z,12.12
2017-10-18T21:59:03.283Z,12.13
2017-10-18T22:00:03.632Z,12.04
2017-10-18T22:01:03.593Z,12.1
2017-10-18T22:02:03.264Z,12.12
2017-10-18T22:03:03.277Z,12.18
2017-10-18T22:04:03.312Z,12.22
2017-10-18T22:05:03.595Z,12.17
2017-10-18T22:06:03.258Z,12.17
2017-10-18T22:07:03.578Z,12.27
2017-10-18T22:08:03.249Z,12.22
2017-10-18T22:09:03.568Z,12.22
2017-10-18T22:10:03.345Z,12.25
2017-10-18T22:11:02.926Z,12.36
2017-10-18T22:12:03.563Z,12.28
2017-10-18T22:13:03.237Z,12.32
2017-10-18T22:14:03.554Z,12.31
2017-10-18T22:15:03.242Z,12.39
2017-10-18T22:16:03.233Z,12.36
2017-10-18T22:17:03.242Z,12.25
2017-10-18T22:18:02.902Z,12.36
2017-10-18T22:19:03.231Z,12.36
2017-10-18T22:20:04.742Z,12.39
2017-10-18T22:21:03.212Z,12.36
2017-10-18T22:22:03.220Z,12.35
2017-10-18T22:23:03.532Z,12.39
2017-10-18T22:24:02.887Z,12.29
2017-10-18T22:25:03.201Z,12.29
2017-10-18T22:26:02.880Z,12.37
2017-10-18T22:27:03.519Z,12.36
2017-10-18T22:28:03.195Z,12.32
2017-10-18T22:29:03.227Z,12.36
2017-10-18T22:59:54.097Z,12.31
2017-10-18T23:00:53.588Z,12.24
2017-10-18T23:01:54.139Z,12.22
2017-10-18T23:02:53.812Z,12.2
2017-10-18T23:03:54.132Z,12.18
2017-10-18T23:04:53.798Z,12.18
2017-10-18T23:05:54.151Z,12.15
2017-10-18T23:06:53.791Z,12.17
2017-10-18T23:07:54.102Z,12.18
2017-10-18T23:08:53.780Z,12.21
2017-10-18T23:09:53.768Z,12.13
2017-10-18T23:10:54.156Z,12.07
2017-10-18T23:11:53.755Z,12.13
2017-10-18T23:12:53.436Z,12.07
2017-10-18T23:13:53.764Z,12.12
2017-10-18T23:14:53.764Z,12.15
2017-10-18T23:15:53.851Z,12.1
2017-10-18T23:16:53.745Z,12.17
2017-10-18T23:17:54.063Z,12.07
2017-10-18T23:18:54.080Z,12.04
2017-10-18T23:19:53.409Z,12.07
2017-10-18T23:20:54.061Z,12.21
2017-10-18T23:21:54.047Z,12.21
2017-10-18T23:22:53.712Z,12.12
2017-10-18T23:23:53.725Z,12.1
2017-10-18T23:24:54.041Z,12.06
2017-10-18T23:25:53.775Z,12.04
2017-10-18T23:26:54.024Z,12.06
2017-10-18T23:27:53.392Z,12.04
2017-10-18T23:28:54.016Z,12.15
2017-10-18T23:29:54.821Z,12.07
2017-10-18T23:30:53.688Z,12.04
2017-10-18T23:31:53.701Z,12.07
2017-10-18T23:32:53.374Z,12
2017-10-18T23:33:53.695Z,12
2017-10-18T23:34:54.013Z,11.99
2017-10-18T23:35:53.997Z,11.99
2017-10-18T23:36:53.671Z,11.97
2017-10-18T23:37:53.993Z,12.02
2017-10-18T23:38:53.985Z,11.99
2017-10-18T23:39:53.996Z,12
2017-10-18T23:40:53.671Z,12.04
2017-10-18T23:41:53.979Z,12.06
2017-10-18T23:42:53.345Z,11.91
2017-10-18T23:43:53.971Z,12.03
2017-10-18T23:44:53.655Z,12.02
2017-10-18T23:45:53.732Z,11.87
2017-10-18T23:46:53.646Z,11.99
2017-10-18T23:47:53.321Z,12.02
2017-10-18T23:48:53.956Z,12
2017-10-18T23:49:53.961Z,12.06
2017-10-18T23:50:53.672Z,12.04
2017-10-18T23:51:53.632Z,11.97
2017-10-18T23:52:53.958Z,12
2017-10-18T23:53:53.948Z,12.1
2017-10-18T23:54:53.941Z,12.06
2017-10-18T23:55:53.305Z,12.06
2017-10-18T23:56:53.954Z,12.13
2017-10-18T23:57:53.611Z,12.07
2017-10-18T23:58:53.289Z,12.04
2017-10-18T23:59:53.933Z,12.06
